Time;durP1;ratioP1;P1;durP2;ratioP2;P2;SDS_P1;SDS_P2;PMS_P1;PMS_P2;Temp;Humidity;BMP_temperature;BMP_pressure;BME280_temperature;BME280_humidity;BME280_pressure;Samples;Min_cycle;Max_cycle;Signal;HPM_P1;HPM_P2
2020/12/07 00:00:24;;;;;;;;;6.00;6.00;;;;;14.00;56.88;97567.94;4948758;28;103897;-81
2020/12/07 00:02:51;;;;;;;;;7.00;7.00;;;;;14.00;56.70;97573.38;4944475;28;104065;-81
2020/12/07 00:05:18;;;;;;;;;7.00;7.00;;;;;14.00;56.70;97575.25;4953491;28;104147;-81
2020/12/07 00:07:44;;;;;;;;;6.25;6.00;;;;;13.99;57.24;97571.72;4954228;28;103771;-81
2020/12/07 00:10:11;;;;;;;;;7.50;6.50;;;;;13.98;56.46;97574.69;4949887;28;102583;-81
2020/12/07 00:12:38;;;;;;;;;6.00;6.00;;;;;13.97;56.70;97571.13;4952730;28;104309;-81
2020/12/07 00:15:05;;;;;;;;;9.00;8.00;;;;;13.97;56.62;97571.13;4951092;28;102528;-81
2020/12/07 00:17:32;;;;;;;;;7.00;7.00;;;;;13.98;56.26;97571.97;4938364;28;102217;-81
2020/12/07 00:19:59;;;;;;;;;7.00;6.50;;;;;13.97;57.06;97576.56;4951986;28;104058;-81
2020/12/07 00:22:28;;;;;;;;;7.25;6.50;;;;;13.96;56.66;97579.56;4933237;28;103996;-82
2020/12/07 00:24:57;;;;;;;;;6.25;6.25;;;;;13.93;57.01;97569.97;4950054;28;103086;-81
2020/12/07 00:27:28;;;;;;;;;7.00;7.00;;;;;13.93;57.11;97569.97;4935919;28;102275;-81
2020/12/07 00:29:57;;;;;;;;;5.50;5.50;;;;;13.92;56.30;97571.03;4954436;28;102489;-81
2020/12/07 00:32:24;;;;;;;;;6.00;6.00;;;;;13.89;57.25;97552.53;4943914;28;104078;-81
2020/12/07 00:34:51;;;;;;;;;6.00;6.00;;;;;13.89;56.46;97568.00;4944452;28;102749;-78
2020/12/07 00:37:18;;;;;;;;;7.00;6.50;;;;;13.88;57.22;97561.75;4958471;28;102244;-78
2020/12/07 00:39:45;;;;;;;;;7.00;6.00;;;;;13.88;56.39;97550.88;4953634;28;104719;-78
2020/12/07 00:42:12;;;;;;;;;7.00;7.00;;;;;13.88;56.23;97534.56;4949011;28;105700;-78
2020/12/07 00:44:39;;;;;;;;;6.50;6.00;;;;;13.85;57.08;97526.94;4954918;28;102427;-78
2020/12/07 00:47:06;;;;;;;;;7.00;6.00;;;;;13.84;56.20;97519.84;4948803;28;102563;-78
2020/12/07 00:49:33;;;;;;;;;7.00;6.25;;;;;13.83;57.33;97516.28;4950314;28;102215;-78
2020/12/07 00:52:01;;;;;;;;;5.50;5.00;;;;;13.82;56.22;97519.28;4948272;28;105326;-77
2020/12/07 00:54:28;;;;;;;;;5.75;5.75;;;;;13.83;56.47;97507.31;4954817;28;103053;-78
2020/12/07 00:56:55;;;;;;;;;6.25;6.00;;;;;13.81;56.47;97525.78;4952525;28;102481;-78
2020/12/07 00:59:22;;;;;;;;;6.00;5.00;;;;;13.80;57.15;97530.38;4935646;28;104003;-78
2020/12/07 01:01:50;;;;;;;;;5.25;5.25;;;;;13.80;56.30;97524.13;4943463;28;104669;-78
2020/12/07 01:04:16;;;;;;;;;5.00;5.00;;;;;13.81;56.57;97531.22;4938994;28;104701;-78
2020/12/07 01:06:47;;;;;;;;;6.00;6.00;;;;;13.80;56.46;97526.84;4952198;28;102487;-78
2020/12/07 01:09:17;;;;;;;;;6.50;6.00;;;;;13.79;56.61;97509.72;4960580;28;103141;-78
2020/12/07 01:11:44;;;;;;;;;4.75;4.25;;;;;13.76;56.29;97507.50;4925422;28;104036;-78
2020/12/07 01:14:11;;;;;;;;;5.00;5.00;;;;;13.79;56.95;97506.16;4947794;28;103871;-77
2020/12/07 01:16:38;;;;;;;;;6.00;5.50;;;;;13.77;56.23;97505.59;4952963;28;104104;-78
2020/12/07 01:19:05;;;;;;;;;5.50;5.00;;;;;13.75;56.11;97502.31;4956613;28;104257;-78
2020/12/07 01:21:33;;;;;;;;;7.00;5.25;;;;;13.76;56.61;97493.09;4936248;28;108814;-78
2020/12/07 01:24:00;;;;;;;;;6.00;6.00;;;;;13.75;56.63;97503.13;4932494;28;103031;-77
2020/12/07 01:26:27;;;;;;;;;6.00;6.00;;;;;13.74;57.18;97506.91;4955290;28;104340;-78
2020/12/07 01:28:53;;;;;;;;;4.50;4.50;;;;;13.75;56.76;97515.88;4952511;28;102298;-78
2020/12/07 01:31:20;;;;;;;;;5.25;4.25;;;;;13.76;56.84;97520.25;4943533;28;104212;-77
2020/12/07 01:33:47;;;;;;;;;4.00;4.00;;;;;13.74;56.03;97522.38;4956007;28;102861;-77
2020/12/07 01:36:14;;;;;;;;;4.25;4.00;;;;;13.75;56.21;97518.59;4953446;28;102795;-78
2020/12/07 01:38:41;;;;;;;;;5.75;5.75;;;;;13.72;56.22;97505.53;4955163;28;103600;-78
2020/12/07 01:41:07;;;;;;;;;5.50;5.50;;;;;13.72;56.37;97500.91;4947799;28;104055;-78
2020/12/07 01:43:34;;;;;;;;;4.75;4.75;;;;;13.73;56.66;97497.09;4958368;28;103949;-78
2020/12/07 01:46:01;;;;;;;;;5.00;5.00;;;;;13.72;56.72;97505.53;4950000;28;110588;-78
2020/12/07 01:48:28;;;;;;;;;4.50;4.25;;;;;13.70;56.41;97494.06;4948994;28;102552;-78
2020/12/07 01:50:54;;;;;;;;;4.00;4.00;;;;;13.71;56.53;97487.56;4955335;28;104257;-78
2020/12/07 01:53:22;;;;;;;;;4.75;4.00;;;;;13.71;56.95;97498.44;4932500;28;103837;-77
2020/12/07 01:55:49;;;;;;;;;4.50;4.00;;;;;13.71;56.80;97498.44;4946517;28;102892;-77
2020/12/07 01:58:15;;;;;;;;;5.00;4.00;;;;;13.69;56.65;97497.84;4929478;28;102360;-78
2020/12/07 02:00:42;;;;;;;;;4.50;4.50;;;;;13.68;56.15;97507.91;4954872;28;104169;-78
2020/12/07 02:03:11;;;;;;;;;3.75;3.75;;;;;13.67;56.33;97492.69;4943817;28;103873;-77
2020/12/07 02:05:38;;;;;;;;;4.50;3.75;;;;;13.67;56.61;97483.72;4945080;28;103050;-78
2020/12/07 02:08:15;;;;;;;;;4.00;4.00;;;;;13.66;56.88;97487.50;4925377;28;103090;-78
2020/12/07 02:10:45;;;;;;;;;4.50;4.00;;;;;13.65;56.72;97483.13;4845030;28;107708;-78
2020/12/07 02:13:15;;;;;;;;;5.00;5.00;;;;;13.65;56.84;97469.53;4948132;28;104269;-77
2020/12/07 02:15:46;;;;;;;;;5.00;4.25;;;;;13.62;56.27;97472.75;4950840;28;102295;-77
2020/12/07 02:18:14;;;;;;;;;4.00;4.00;;;;;13.62;56.89;97470.88;4939057;28;102542;-78
2020/12/07 02:20:50;;;;;;;;;3.00;3.00;;;;;13.63;55.95;97472.53;4945260;28;104120;-77
2020/12/07 02:23:19;;;;;;;;;4.00;4.00;;;;;13.63;56.76;97463.56;4941555;28;103198;-77
2020/12/07 02:25:47;;;;;;;;;3.00;3.00;;;;;13.64;56.44;97457.88;4940491;28;104153;-77
2020/12/07 02:28:15;;;;;;;;;4.25;4.25;;;;;13.62;56.33;97459.19;4919169;28;102937;-77
2020/12/07 02:30:44;;;;;;;;;3.00;3.00;;;;;13.62;56.13;97449.13;4944378;28;104220;-77
2020/12/07 02:33:16;;;;;;;;;5.00;4.00;;;;;13.62;56.96;97448.31;4946465;28;103882;-77
2020/12/07 02:35:45;;;;;;;;;4.25;4.25;;;;;13.62;56.81;97453.75;4942950;28;102779;-77
2020/12/07 02:38:14;;;;;;;;;4.00;4.00;;;;;13.62;56.94;97459.19;4949481;28;102142;-77
2020/12/07 02:40:44;;;;;;;;;4.00;4.00;;;;;13.62;56.45;97475.47;4932205;28;104163;-77
2020/12/07 02:43:15;;;;;;;;;6.00;4.25;;;;;13.62;56.06;97483.63;4934540;28;103709;-77
2020/12/07 02:45:43;;;;;;;;;2.75;2.75;;;;;13.63;56.69;97488.00;4943261;28;102570;-77
2020/12/07 02:48:09;;;;;;;;;3.50;3.00;;;;;13.62;55.62;97491.78;4952507;28;102716;-77
2020/12/07 02:50:36;;;;;;;;;5.00;5.00;;;;;13.61;55.81;97481.97;4957313;28;104214;-78
2020/12/07 02:53:03;;;;;;;;;3.25;3.25;;;;;13.58;56.31;97464.28;4948431;28;102378;-77
2020/12/07 02:55:29;;;;;;;;;4.75;4.50;;;;;13.58;56.90;97463.47;4954942;28;104022;-77
2020/12/07 02:57:56;;;;;;;;;4.25;4.25;;;;;13.59;56.91;97456.97;4949811;28;107938;-78
2020/12/07 03:00:23;;;;;;;;;7.00;4.00;;;;;13.57;55.80;97451.78;4949145;28;104221;-78
2020/12/07 03:02:49;;;;;;;;;3.00;3.00;;;;;13.56;56.18;97462.88;4946922;28;104205;-77
2020/12/07 03:05:16;;;;;;;;;4.50;3.50;;;;;13.57;56.86;97446.34;4949875;28;102580;-77
2020/12/07 03:07:44;;;;;;;;;5.25;5.00;;;;;13.58;56.18;97452.59;4950462;28;104607;-77
2020/12/07 03:10:11;;;;;;;;;3.00;3.00;;;;;13.58;55.98;97437.13;4947279;28;104089;-78
2020/12/07 03:12:38;;;;;;;;;5.00;4.50;;;;;13.58;56.67;97437.13;4947618;28;102928;-77
2020/12/07 03:15:05;;;;;;;;;3.00;3.00;;;;;13.59;55.74;97452.38;4954648;28;103231;-77
2020/12/07 03:17:31;;;;;;;;;3.50;3.25;;;;;13.59;55.53;97448.81;4951418;28;104328;-77
2020/12/07 03:19:58;;;;;;;;;3.00;3.00;;;;;13.57;56.40;97440.91;4951398;28;104071;-78
2020/12/07 03:22:24;;;;;;;;;3.00;3.00;;;;;13.57;55.69;97457.22;4948022;28;102108;-77
2020/12/07 03:24:51;;;;;;;;;4.00;3.75;;;;;13.57;56.01;97454.50;4949596;28;108010;-78
2020/12/07 03:27:18;;;;;;;;;3.50;3.50;;;;;13.59;56.42;97446.09;4952149;28;102600;-77
2020/12/07 03:29:44;;;;;;;;;3.00;3.00;;;;;13.58;55.83;97444.47;4956527;28;104391;-77
2020/12/07 03:32:11;;;;;;;;;3.50;3.00;;;;;13.55;56.11;97437.63;4949854;28;103077;-77
2020/12/07 03:34:38;;;;;;;;;3.00;3.00;;;;;13.58;56.49;97437.13;4943194;28;104083;-78
2020/12/07 03:37:04;;;;;;;;;3.50;3.50;;;;;13.56;55.56;97424.84;4948517;28;102838;-77
2020/12/07 03:39:31;;;;;;;;;3.00;3.00;;;;;13.56;55.90;97430.28;4952751;28;106178;-77
2020/12/07 03:41:59;;;;;;;;;4.00;4.00;;;;;13.55;55.79;97431.38;4947627;28;102597;-77
2020/12/07 03:44:26;;;;;;;;;4.00;3.00;;;;;13.56;56.86;97435.72;4953101;28;102625;-77
2020/12/07 03:46:52;;;;;;;;;3.25;3.25;;;;;13.54;55.76;97429.72;4949957;28;102349;-78
2020/12/07 03:49:19;;;;;;;;;4.00;4.00;;;;;13.55;56.33;97434.09;4957122;28;104233;-78
2020/12/07 03:51:46;;;;;;;;;3.25;3.25;;;;;13.55;55.71;97436.81;4950660;28;104089;-77
2020/12/07 03:54:13;;;;;;;;;3.00;3.00;;;;;13.55;56.54;97432.22;4949783;28;103805;-77
2020/12/07 03:56:40;;;;;;;;;3.00;2.00;;;;;13.55;55.94;97434.09;4952823;28;102254;-78
2020/12/07 03:59:06;;;;;;;;;3.00;3.00;;;;;13.55;56.51;97444.97;4954371;28;104343;-78
2020/12/07 04:01:33;;;;;;;;;2.00;0.75;;;;;13.55;56.35;97450.41;4963617;28;102223;-78
2020/12/07 04:04:04;;;;;;;;;3.00;3.00;;;;;13.55;55.87;97451.22;4952230;28;102389;-78
2020/12/07 04:06:34;;;;;;;;;3.00;3.00;;;;;13.55;56.06;97447.69;4948600;28;104156;-77
2020/12/07 04:09:01;;;;;;;;;4.00;3.00;;;;;13.53;56.43;97452.53;4950891;28;105665;-78
2020/12/07 04:11:28;;;;;;;;;4.00;3.00;;;;;13.52;56.52;97442.72;4954772;28;103681;-78
2020/12/07 04:13:55;;;;;;;;;3.25;3.25;;;;;13.54;56.03;97456.88;4956058;28;103824;-78
2020/12/07 04:16:26;;;;;;;;;3.00;3.00;;;;;13.52;55.85;97454.41;4956494;28;103229;-78
2020/12/07 04:18:53;;;;;;;;;2.75;2.75;;;;;13.52;55.51;97457.13;4933643;28;104250;-77
2020/12/07 04:21:20;;;;;;;;;3.00;3.00;;;;;13.52;55.54;97448.16;4950094;28;103269;-77
2020/12/07 04:23:47;;;;;;;;;3.00;3.00;;;;;13.52;55.40;97448.16;4932332;28;102445;-78
2020/12/07 04:26:13;;;;;;;;;2.50;2.25;;;;;13.53;56.30;97456.06;4958262;28;103378;-78
2020/12/07 04:28:40;;;;;;;;;2.50;2.50;;;;;13.52;55.65;97453.59;4951496;28;104172;-78
2020/12/07 04:31:07;;;;;;;;;3.00;2.00;;;;;13.52;56.01;97454.41;4934169;28;103401;-78
2020/12/07 04:33:33;;;;;;;;;2.25;2.00;;;;;13.51;56.09;97468.25;4956636;28;103576;-78
2020/12/07 04:36:00;;;;;;;;;3.25;3.00;;;;;13.51;56.54;97457.41;4947003;28;102497;-81
2020/12/07 04:38:27;;;;;;;;;2.00;2.00;;;;;13.50;56.33;97458.47;4926163;28;104086;-81
2020/12/07 04:40:54;;;;;;;;;2.00;2.00;;;;;13.50;56.34;97453.03;4949386;28;103962;-81
2020/12/07 04:43:20;;;;;;;;;2.00;2.00;;;;;13.51;56.38;97457.41;4950804;28;102648;-81
2020/12/07 04:45:47;;;;;;;;;2.00;2.00;;;;;13.48;55.49;97436.16;4934923;28;102347;-81
2020/12/07 04:48:15;;;;;;;;;4.00;2.75;;;;;13.49;56.66;97445.94;4907360;28;104514;-81
2020/12/07 04:50:42;;;;;;;;;3.00;3.00;;;;;13.49;56.29;97443.22;4929582;28;103680;-81
2020/12/07 04:53:08;;;;;;;;;2.50;2.50;;;;;13.48;56.10;97441.56;4912624;28;102478;-81
2020/12/07 04:55:35;;;;;;;;;3.00;2.50;;;;;13.47;56.37;97445.34;4922388;28;103150;-81
2020/12/07 04:58:02;;;;;;;;;2.00;2.00;;;;;13.47;56.00;97445.34;4908795;28;108495;-81
2020/12/07 05:00:28;;;;;;;;;4.25;3.00;;;;;13.49;56.26;97445.94;4919970;28;102743;-81
2020/12/07 05:02:56;;;;;;;;;2.00;2.00;;;;;13.47;55.36;97450.78;4912895;28;102733;-81
2020/12/07 05:05:23;;;;;;;;;2.75;2.75;;;;;13.47;56.28;97432.59;4910841;28;102829;-81
2020/12/07 05:07:51;;;;;;;;;2.50;2.50;;;;;13.47;56.52;97445.34;4914775;28;104464;-81
2020/12/07 05:10:40;;;;;;;;;3.50;2.75;;;;;13.46;55.79;97433.69;4932096;28;103043;-81
2020/12/07 05:13:30;;;;;;;;;4.00;3.00;;;;;13.46;55.81;97428.25;4914234;28;103782;-81
2020/12/07 05:15:57;;;;;;;;;3.00;2.50;;;;;13.46;55.53;97428.25;4794905;28;102868;-81
2020/12/07 05:18:23;;;;;;;;;3.00;3.00;;;;;13.47;56.54;97434.50;4910362;28;104170;-83
2020/12/07 05:20:50;;;;;;;;;2.50;2.50;;;;;13.46;56.18;97433.69;4910558;28;103389;-81
2020/12/07 05:23:17;;;;;;;;;2.00;2.00;;;;;13.49;56.37;97432.38;4910323;28;102480;-81
2020/12/07 05:25:45;;;;;;;;;3.25;3.00;;;;;13.49;56.10;97435.91;4911330;28;104008;-81
2020/12/07 05:28:13;;;;;;;;;1.00;1.00;;;;;13.50;55.87;97436.72;4921407;28;104041;-81
2020/12/07 05:30:43;;;;;;;;;3.25;2.50;;;;;13.50;56.61;97434.00;4916442;28;103745;-81
2020/12/07 05:33:12;;;;;;;;;2.00;2.00;;;;;13.49;56.65;97432.38;4911666;28;103592;-81
2020/12/07 05:35:39;;;;;;;;;3.00;2.00;;;;;13.48;55.82;97436.16;4911061;28;103938;-77
2020/12/07 05:38:06;;;;;;;;;1.00;1.00;;;;;13.47;56.52;97445.34;4916659;28;104465;-77
2020/12/07 05:40:32;;;;;;;;;3.00;3.00;;;;;13.48;56.52;97441.56;4911419;28;104747;-78
2020/12/07 05:42:59;;;;;;;;;3.50;2.00;;;;;13.46;56.16;97439.13;4915459;28;102570;-78
2020/12/07 05:45:26;;;;;;;;;2.00;2.00;;;;;13.46;56.38;97439.13;4944214;28;103580;-77
2020/12/07 05:47:54;;;;;;;;;1.75;1.75;;;;;13.46;55.50;97443.72;4949358;28;103997;-77
2020/12/07 05:50:21;;;;;;;;;2.00;2.00;;;;;13.44;55.89;97451.28;4950785;28;103881;-78
2020/12/07 05:52:49;;;;;;;;;1.00;1.00;;;;;13.44;56.36;97456.72;4948352;28;102760;-78
2020/12/07 05:55:17;;;;;;;;;3.25;3.00;;;;;13.43;55.88;97450.47;4942779;28;102476;-78
2020/12/07 05:57:52;;;;;;;;;2.00;2.00;;;;;13.42;55.98;97453.44;4944751;28;105403;-77
2020/12/07 06:00:21;;;;;;;;;1.00;1.00;;;;;13.42;56.50;97459.66;4938165;28;104648;-78
2020/12/07 06:02:52;;;;;;;;;2.00;2.00;;;;;13.42;56.27;97458.88;4899758;28;104770;-78
2020/12/07 06:05:22;;;;;;;;;4.00;2.75;;;;;13.42;55.76;97459.66;4911577;28;103848;-81
2020/12/07 06:08:07;;;;;;;;;2.00;1.00;;;;;13.42;56.38;97450.72;4928046;28;104292;-81
2020/12/07 06:10:40;;;;;;;;;2.00;2.00;;;;;13.42;55.23;97458.88;4927353;28;103827;-81
2020/12/07 06:13:11;;;;;;;;;2.00;1.25;;;;;13.42;55.76;97464.31;4938924;28;102957;-81
2020/12/07 06:15:50;;;;;;;;;2.00;1.00;;;;;13.42;55.85;97458.88;4945237;28;102971;-82
2020/12/07 06:18:30;;;;;;;;;1.25;1.25;;;;;13.40;55.29;97468.09;4887507;28;108749;-81
2020/12/07 06:21:15;;;;;;;;;3.00;2.00;;;;;13.40;56.26;97464.53;4954312;28;102172;-82
2020/12/07 06:23:43;;;;;;;;;2.25;1.50;;;;;13.39;56.13;97474.56;4955018;28;102544;-81
2020/12/07 06:26:11;;;;;;;;;1.00;1.00;;;;;13.40;56.15;97478.13;4955854;28;102647;-81
2020/12/07 06:28:40;;;;;;;;;1.75;1.25;;;;;13.39;56.33;97477.28;4960361;28;104400;-81
2020/12/07 06:31:10;;;;;;;;;1.75;1.00;;;;;13.39;55.29;97485.44;4943770;28;102434;-82
2020/12/07 06:33:42;;;;;;;;;2.00;1.25;;;;;13.39;56.01;97499.00;4950227;28;102677;-81
2020/12/07 06:36:34;;;;;;;;;1.75;1.75;;;;;13.39;55.37;97499.00;4955490;28;102403;-80
2020/12/07 06:39:06;;;;;;;;;2.00;1.00;;;;;13.39;55.82;97504.44;4873403;28;108591;-81
2020/12/07 06:41:39;;;;;;;;;0.00;0.00;;;;;13.39;56.35;97498.19;4946292;28;103781;-81
2020/12/07 06:44:18;;;;;;;;;2.00;2.00;;;;;13.39;55.62;97509.03;4935195;28;102565;-81
2020/12/07 06:47:13;;;;;;;;;1.00;1.00;;;;;13.38;56.10;97508.22;4858631;28;102526;-81
2020/12/07 06:49:59;;;;;;;;;1.00;1.00;;;;;13.38;55.51;97518.25;4953969;28;109064;-81
2020/12/07 06:52:28;;;;;;;;;1.50;1.50;;;;;13.38;55.97;97518.25;4957016;28;102173;-82
2020/12/07 06:55:08;;;;;;;;;1.25;1.25;;;;;13.39;55.79;97503.63;4959183;28;102239;-81
2020/12/07 06:57:43;;;;;;;;;2.00;2.00;;;;;13.37;55.17;97506.56;4956996;28;103368;-81
2020/12/07 07:00:17;;;;;;;;;1.25;1.25;;;;;13.38;56.34;97507.41;4956394;28;104054;-81
2020/12/07 07:02:51;;;;;;;;;1.50;1.50;;;;;13.37;56.14;97511.19;4948549;28;102710;-81
2020/12/07 07:05:19;;;;;;;;;2.00;2.00;;;;;13.37;56.03;97512.00;4954557;28;102693;-81
2020/12/07 07:07:46;;;;;;;;;5.00;2.25;;;;;13.38;55.66;97513.66;4957243;28;103193;-82
2020/12/07 07:10:14;;;;;;;;;1.25;1.25;;;;;13.37;55.71;97517.44;4957260;28;104035;-82
2020/12/07 07:12:42;;;;;;;;;2.00;2.00;;;;;13.37;55.99;97513.91;4952540;28;102584;-81
2020/12/07 07:15:09;;;;;;;;;1.00;1.00;;;;;13.38;55.70;97520.97;4962502;28;103399;-81
2020/12/07 07:17:37;;;;;;;;;1.75;1.75;;;;;13.37;55.87;97522.84;4960051;28;102166;-82
2020/12/07 07:20:09;;;;;;;;;2.00;2.00;;;;;13.38;55.97;97520.97;4955427;28;108853;-81
2020/12/07 07:22:39;;;;;;;;;2.25;2.00;;;;;13.38;56.00;97523.69;4962518;28;103820;-82
2020/12/07 07:30:20;;;;;;;;;2.00;2.00;;;;;13.37;55.96;97533.72;4890749;28;108936;-81
2020/12/07 07:32:49;;;;;;;;;2.00;1.00;;;;;13.36;55.04;97542.97;4956767;28;102167;-81
2020/12/07 07:35:18;;;;;;;;;2.00;2.00;;;;;13.36;55.18;97536.69;4954552;28;102264;-78
2020/12/07 07:37:48;;;;;;;;;1.00;1.00;;;;;13.37;56.22;97535.63;4956109;28;102364;-77
2020/12/07 07:40:16;;;;;;;;;1.00;1.00;;;;;13.37;55.55;97532.91;4956955;28;104092;-77
2020/12/07 07:43:03;;;;;;;;;2.00;2.00;;;;;13.37;55.62;97541.88;4963296;28;102726;-77
2020/12/07 07:45:37;;;;;;;;;2.00;2.00;;;;;13.36;55.60;97529.38;4949861;28;102261;-78
2020/12/07 07:48:14;;;;;;;;;1.75;1.00;;;;;13.36;56.11;97534.81;4946825;28;102271;-78
2020/12/07 08:17:52;;;;;;;;;0.75;0.75;;;;;13.36;55.70;97553.81;4868145;28;102712;-81
2020/12/07 08:20:21;;;;;;;;;1.00;1.00;;;;;13.37;55.90;97550.00;4960134;28;105669;-81
2020/12/07 08:22:56;;;;;;;;;1.75;1.75;;;;;13.35;56.01;97549.44;4955556;28;103846;-81
2020/12/07 08:25:50;;;;;;;;;1.75;1.00;;;;;13.36;54.81;97547.56;4966813;28;102834;-82
2020/12/07 08:28:31;;;;;;;;;1.00;1.00;;;;;13.36;55.93;97559.25;4856134;28;102832;-81
2020/12/07 08:31:04;;;;;;;;;1.00;1.00;;;;;13.36;55.76;97553.81;4963302;28;102245;-81
2020/12/07 08:33:32;;;;;;;;;2.75;1.00;;;;;13.36;54.85;97558.41;4955888;28;106827;-81
2020/12/07 08:36:00;;;;;;;;;2.25;1.75;;;;;13.36;55.42;97553.00;4956857;28;102013;-81
2020/12/07 08:38:30;;;;;;;;;2.75;2.00;;;;;13.35;55.91;97552.16;4960780;28;102258;-81
2020/12/07 08:41:10;;;;;;;;;1.00;1.00;;;;;13.33;55.66;97559.72;4959917;28;102718;-81
2020/12/07 08:43:38;;;;;;;;;1.00;1.00;;;;;13.36;55.26;97558.41;4955835;28;108784;-81
2020/12/07 08:46:07;;;;;;;;;2.00;1.00;;;;;13.35;55.24;97557.59;4962974;28;102393;-81
2020/12/07 08:48:35;;;;;;;;;1.50;0.75;;;;;13.37;55.15;97554.66;4961982;28;102569;-82
2020/12/07 08:51:02;;;;;;;;;2.00;1.00;;;;;13.36;55.09;97553.00;4963324;28;102788;-81
2020/12/07 08:53:28;;;;;;;;;1.50;1.50;;;;;13.35;54.71;97556.75;4956629;28;104068;-81
2020/12/07 08:55:57;;;;;;;;;1.00;1.00;;;;;13.36;55.09;97556.53;4960867;28;102108;-81
2020/12/07 08:58:24;;;;;;;;;1.00;1.00;;;;;13.34;55.71;97550.50;4936944;28;102146;-81
2020/12/07 09:00:51;;;;;;;;;2.00;1.00;;;;;13.35;55.26;97544.03;4963981;28;102592;-81
2020/12/07 09:03:18;;;;;;;;;2.00;0.50;;;;;13.35;55.53;97546.72;4963826;28;104012;-81
2020/12/07 09:05:44;;;;;;;;;1.00;1.00;;;;;13.36;55.80;97553.00;4963269;28;103717;-81
2020/12/07 09:08:11;;;;;;;;;2.00;2.00;;;;;13.35;55.69;97552.16;4939098;28;102131;-81
2020/12/07 09:10:38;;;;;;;;;1.00;1.00;;;;;13.36;55.27;97553.81;4901623;28;103811;-82
2020/12/07 09:13:05;;;;;;;;;2.00;2.00;;;;;13.36;55.85;97553.81;4903688;28;108673;-82
2020/12/07 09:15:32;;;;;;;;;2.00;1.00;;;;;13.36;54.48;97551.09;4892074;28;102692;-82
2020/12/07 09:17:59;;;;;;;;;1.75;1.00;;;;;13.37;55.58;97547.28;4898773;28;102777;-81
2020/12/07 09:20:25;;;;;;;;;1.00;1.00;;;;;13.38;55.00;97558.97;4896106;28;102564;-82
2020/12/07 09:22:52;;;;;;;;;1.25;1.00;;;;;13.37;55.23;97554.66;4889105;28;104015;-82
2020/12/07 09:25:19;;;;;;;;;2.00;2.00;;;;;13.38;54.64;97561.69;4901329;28;102625;-82
2020/12/07 09:27:45;;;;;;;;;2.00;2.00;;;;;13.39;54.66;97561.47;4898128;28;102621;-82
2020/12/07 09:30:12;;;;;;;;;1.25;1.00;;;;;13.39;55.17;97579.66;4899520;28;102383;-81
2020/12/07 09:32:39;;;;;;;;;1.00;1.00;;;;;13.39;54.86;97568.78;4899600;28;105299;-82
2020/12/07 09:35:08;;;;;;;;;2.75;2.00;;;;;13.37;54.92;97566.31;4879026;28;104360;-82
2020/12/07 09:37:36;;;;;;;;;2.25;2.25;;;;;13.39;54.72;97564.19;4902043;28;105924;-81
2020/12/07 09:40:06;;;;;;;;;1.50;1.00;;;;;13.40;55.10;97578.59;4895767;28;102312;-82
2020/12/07 09:42:33;;;;;;;;;2.00;1.75;;;;;13.39;54.50;97580.47;4900710;28;105478;-81
2020/12/07 09:44:59;;;;;;;;;2.00;1.50;;;;;13.40;54.62;97576.69;4893229;28;102079;-78
2020/12/07 09:47:27;;;;;;;;;2.00;2.00;;;;;13.41;55.55;97572.09;4890805;28;102274;-78
2020/12/07 09:49:54;;;;;;;;;1.00;1.00;;;;;13.40;54.77;97582.13;4893379;28;102640;-78
2020/12/07 09:52:20;;;;;;;;;2.00;2.00;;;;;13.40;54.50;97579.41;4890303;28;104104;-78
2020/12/07 09:54:47;;;;;;;;;2.00;1.00;;;;;13.39;54.77;97572.31;4897042;28;102574;-78
2020/12/07 09:57:15;;;;;;;;;2.00;2.00;;;;;13.40;55.57;97571.25;4891104;28;103462;-77
2020/12/07 09:59:42;;;;;;;;;1.75;1.00;;;;;13.42;54.67;97562.06;4890126;28;102454;-78
2020/12/07 10:02:09;;;;;;;;;2.25;2.25;;;;;13.42;54.72;97567.50;4893914;28;104095;-77
2020/12/07 10:04:35;;;;;;;;;2.00;2.00;;;;;13.42;55.38;97575.63;4893883;28;102691;-77
2020/12/07 10:07:02;;;;;;;;;2.25;1.75;;;;;13.42;55.45;97575.63;4886966;28;102131;-78
2020/12/07 10:09:29;;;;;;;;;1.25;1.25;;;;;13.42;55.19;97568.28;4892424;28;102583;-78
2020/12/07 10:11:57;;;;;;;;;1.00;1.00;;;;;13.43;55.48;97574.53;4894237;28;105235;-77
2020/12/07 10:14:23;;;;;;;;;1.00;1.00;;;;;13.43;54.50;97577.25;4882713;28;103859;-77
2020/12/07 10:16:50;;;;;;;;;1.00;1.00;;;;;13.43;54.68;97571.81;4883329;28;102516;-78
2020/12/07 10:19:17;;;;;;;;;1.75;1.00;;;;;13.44;55.05;97570.78;4891686;28;102256;-77
2020/12/07 10:21:43;;;;;;;;;2.00;1.25;;;;;13.42;54.91;97562.84;4895821;28;103777;-78
2020/12/07 10:24:10;;;;;;;;;3.50;2.00;;;;;13.44;54.34;97568.88;4891845;28;102403;-78
2020/12/07 10:26:40;;;;;;;;;1.50;1.00;;;;;13.44;55.16;97552.59;4889930;28;102527;-78
2020/12/07 10:29:07;;;;;;;;;1.00;1.00;;;;;13.45;54.41;97562.38;4899499;28;102181;-77
2020/12/07 10:31:42;;;;;;;;;1.00;1.00;;;;;13.46;55.34;97571.34;4883946;28;110084;-78
2020/12/07 10:34:09;;;;;;;;;1.25;1.00;;;;;13.46;55.21;97568.66;4894129;28;102675;-78
2020/12/07 10:36:37;;;;;;;;;2.00;1.75;;;;;13.46;54.34;97568.66;4888131;28;105133;-78
2020/12/07 10:39:06;;;;;;;;;2.00;1.50;;;;;13.47;55.32;97572.97;4893750;28;103941;-77
2020/12/07 10:41:33;;;;;;;;;1.00;1.00;;;;;13.47;55.41;97581.97;4889185;28;104572;-78
2020/12/07 10:44:00;;;;;;;;;1.00;1.00;;;;;13.43;54.65;97560.97;4892984;28;103577;-78
2020/12/07 10:46:27;;;;;;;;;1.25;1.25;;;;;13.47;55.06;97554.81;4900636;28;103530;-82
2020/12/07 10:48:54;;;;;;;;;1.00;1.00;;;;;13.47;54.43;97571.09;4900009;28;102433;-82
2020/12/07 10:51:21;;;;;;;;;1.25;1.25;;;;;13.48;54.45;97571.91;4899427;28;104955;-82
2020/12/07 10:53:47;;;;;;;;;2.25;2.00;;;;;13.49;55.10;97576.28;4908655;28;103897;-81
2020/12/07 10:56:15;;;;;;;;;1.00;1.00;;;;;13.50;54.83;97567.09;4900294;28;103444;-78
2020/12/07 10:58:42;;;;;;;;;1.00;1.00;;;;;13.49;54.71;97573.56;4899809;28;105410;-78
2020/12/07 11:01:12;;;;;;;;;2.00;2.00;;;;;13.49;54.62;97568.97;4898532;28;103798;-78
2020/12/07 11:03:40;;;;;;;;;1.00;1.00;;;;;13.50;54.74;97569.81;4895391;28;102680;-78
2020/12/07 11:06:23;;;;;;;;;1.00;1.00;;;;;13.51;54.38;97568.75;4904763;28;103462;-78
2020/12/07 11:08:55;;;;;;;;;1.00;1.00;;;;;13.50;54.76;97575.22;4784366;28;104033;-78
2020/12/07 11:11:22;;;;;;;;;1.75;1.75;;;;;13.51;54.38;97576.88;4900500;28;104085;-78
2020/12/07 11:13:49;;;;;;;;;1.75;1.75;;;;;13.51;54.38;97576.88;4899596;28;102484;-78
2020/12/07 11:16:16;;;;;;;;;1.00;1.00;;;;;13.50;55.15;97576.06;4893396;28;102456;-81
2020/12/07 11:18:43;;;;;;;;;2.00;2.00;;;;;13.51;54.43;97572.25;4897580;28;111246;-81
2020/12/07 11:21:14;;;;;;;;;1.00;1.00;;;;;13.52;55.05;97578.50;4904270;28;104069;-82
2020/12/07 11:23:44;;;;;;;;;2.00;1.00;;;;;13.51;54.63;97574.97;4896364;28;102528;-81
2020/12/07 11:26:11;;;;;;;;;2.25;1.75;;;;;13.51;54.71;97555.97;4887052;28;102434;-82
2020/12/07 11:28:38;;;;;;;;;1.50;1.00;;;;;13.52;54.85;97564.94;4904579;28;103249;-81
2020/12/07 11:31:08;;;;;;;;;0.50;0.50;;;;;13.51;54.76;97555.16;4898454;28;104105;-80
2020/12/07 11:33:34;;;;;;;;;0.50;0.50;;;;;13.52;55.21;97559.50;4894023;28;103765;-82
2020/12/07 11:36:11;;;;;;;;;1.00;1.00;;;;;13.53;54.05;97553.00;4901171;28;103729;-82
2020/12/07 11:46:22;;;;;;;;;1.00;1.00;;;;;13.53;54.43;97553.00;4899554;28;102233;-78
2020/12/07 11:48:49;;;;;;;;;1.00;1.00;;;;;13.53;54.92;97553.00;4903974;28;102559;-77
2020/12/07 11:51:16;;;;;;;;;1.00;1.00;;;;;13.52;54.70;97541.31;4890538;28;107064;-77
2020/12/07 11:53:42;;;;;;;;;2.25;1.50;;;;;13.52;54.49;97535.88;4886134;28;102254;-78
2020/12/07 11:56:09;;;;;;;;;2.75;0.75;;;;;13.53;55.03;97529.38;4901298;28;102441;-77
2020/12/07 11:58:36;;;;;;;;;1.50;1.50;;;;;13.53;55.15;97544.84;4897204;28;103524;-78
2020/12/07 12:01:04;;;;;;;;;2.00;1.00;;;;;13.53;54.41;97542.97;4897866;28;103843;-78
2020/12/07 12:03:30;;;;;;;;;1.00;1.00;;;;;13.52;54.66;97544.03;4900492;28;102162;-77
2020/12/07 12:05:57;;;;;;;;;0.00;0.00;;;;;13.53;55.16;97529.38;4898712;28;104768;-78
2020/12/07 12:08:25;;;;;;;;;1.00;1.00;;;;;13.53;54.14;97523.13;4903718;28;103801;-77
2020/12/07 12:10:51;;;;;;;;;1.75;1.75;;;;;13.53;54.46;97539.44;4902082;28;104070;-78